Terminal Aerodrome Forecast
Issued by NWS

Home | Current Version | Previous Version | Text Only | Print | Product List | Glossary On
Versions: 1 2 3 4 5 6 7 8 9 10 11 12 13 14 15 16 17 18 19 20
000
FTUS43 KMQT 250902 AAA
TAFIWD
TAF AMD
KIWD 250902Z 2509/2606 32012KT 3SM -SN OVC015
     FM251400 31016G23KT 6SM -SHSN BLSN BKN025
     FM252100 30013G21KT P6SM SCT035
     FM252300 27007KT P6SM SCT080
     FM260200 25007KT P6SM BKN080=

USA.gov is the U.S. government's official web portal to all federal, state and local government web resources and services.